sensor_id;sensor_type;location;lat;lon;timestamp;temperature;humidity
55213;DHT22;41083;52.932;6.674;2023-05-14T00:01:14;13.00;99.90
55213;DHT22;41083;52.932;6.674;2023-05-14T00:03:40;13.00;99.90
55213;DHT22;41083;52.932;6.674;2023-05-14T00:06:06;13.00;99.90
55213;DHT22;41083;52.932;6.674;2023-05-14T00:08:32;13.00;99.90
55213;DHT22;41083;52.932;6.674;2023-05-14T00:10:58;13.00;99.90
55213;DHT22;41083;52.932;6.674;2023-05-14T00:13:24;12.90;99.90
55213;DHT22;41083;52.932;6.674;2023-05-14T00:15:50;12.90;99.90
55213;DHT22;41083;52.932;6.674;2023-05-14T00:18:15;12.90;99.90
55213;DHT22;41083;52.932;6.674;2023-05-14T00:20:41;12.90;99.90
55213;DHT22;41083;52.932;6.674;2023-05-14T00:23:07;12.90;99.90
55213;DHT22;41083;52.932;6.674;2023-05-14T00:25:32;12.90;99.90
55213;DHT22;41083;52.932;6.674;2023-05-14T00:27:58;12.80;99.90
55213;DHT22;41083;52.932;6.674;2023-05-14T00:30:23;12.80;99.90
55213;DHT22;41083;52.932;6.674;2023-05-14T00:32:49;12.80;99.90
55213;DHT22;41083;52.932;6.674;2023-05-14T00:35:15;12.80;99.90
55213;DHT22;41083;52.932;6.674;2023-05-14T00:37:42;12.80;99.90
55213;DHT22;41083;52.932;6.674;2023-05-14T00:40:08;12.80;99.90
55213;DHT22;41083;52.932;6.674;2023-05-14T00:42:36;12.80;99.90
55213;DHT22;41083;52.932;6.674;2023-05-14T00:45:01;12.70;99.90
55213;DHT22;41083;52.932;6.674;2023-05-14T00:47:27;12.70;99.90
55213;DHT22;41083;52.932;6.674;2023-05-14T00:49:53;12.70;99.90
55213;DHT22;41083;52.932;6.674;2023-05-14T00:52:19;12.70;99.90
55213;DHT22;41083;52.932;6.674;2023-05-14T00:54:45;12.70;99.90
55213;DHT22;41083;52.932;6.674;2023-05-14T00:57:12;12.70;99.90
55213;DHT22;41083;52.932;6.674;2023-05-14T00:59:38;12.60;99.90
55213;DHT22;41083;52.932;6.674;2023-05-14T01:02:06;12.60;99.90
55213;DHT22;41083;52.932;6.674;2023-05-14T01:04:32;12.60;99.90
55213;DHT22;41083;52.932;6.674;2023-05-14T01:07:07;12.60;99.90
55213;DHT22;41083;52.932;6.674;2023-05-14T01:10:06;12.60;99.90
55213;DHT22;41083;52.932;6.674;2023-05-14T01:15:14;12.50;99.90
55213;DHT22;41083;52.932;6.674;2023-05-14T01:17:47;12.50;99.90
55213;DHT22;41083;52.932;6.674;2023-05-14T01:20:15;12.50;99.90
55213;DHT22;41083;52.932;6.674;2023-05-14T01:22:41;12.50;99.90
55213;DHT22;41083;52.932;6.674;2023-05-14T01:25:07;12.50;99.90
55213;DHT22;41083;52.932;6.674;2023-05-14T01:27:54;12.50;99.90
55213;DHT22;41083;52.932;6.674;2023-05-14T01:32:57;12.40;99.90
55213;DHT22;41083;52.932;6.674;2023-05-14T01:35:26;12.40;99.90
55213;DHT22;41083;52.932;6.674;2023-05-14T01:37:54;12.40;99.90
55213;DHT22;41083;52.932;6.674;2023-05-14T01:40:22;12.40;99.90
55213;DHT22;41083;52.932;6.674;2023-05-14T01:42:49;12.30;99.90
55213;DHT22;41083;52.932;6.674;2023-05-14T01:45:16;12.30;99.90
55213;DHT22;41083;52.932;6.674;2023-05-14T01:47:42;12.30;99.90
55213;DHT22;41083;52.932;6.674;2023-05-14T01:50:08;12.30;99.90
55213;DHT22;41083;52.932;6.674;2023-05-14T01:52:34;12.30;99.90
55213;DHT22;41083;52.932;6.674;2023-05-14T01:55:00;12.30;99.90
55213;DHT22;41083;52.932;6.674;2023-05-14T01:57:25;12.30;99.90
55213;DHT22;41083;52.932;6.674;2023-05-14T01:59:51;12.30;99.90
55213;DHT22;41083;52.932;6.674;2023-05-14T02:02:16;12.30;99.90
55213;DHT22;41083;52.932;6.674;2023-05-14T02:04:42;12.30;99.90
55213;DHT22;41083;52.932;6.674;2023-05-14T02:07:08;12.30;99.90
55213;DHT22;41083;52.932;6.674;2023-05-14T02:09:33;12.30;99.90
55213;DHT22;41083;52.932;6.674;2023-05-14T02:11:59;12.30;99.90
55213;DHT22;41083;52.932;6.674;2023-05-14T02:14:24;12.30;99.90
55213;DHT22;41083;52.932;6.674;2023-05-14T02:16:50;12.30;99.90
55213;DHT22;41083;52.932;6.674;2023-05-14T02:19:15;12.30;99.90
55213;DHT22;41083;52.932;6.674;2023-05-14T02:21:41;12.30;99.90
55213;DHT22;41083;52.932;6.674;2023-05-14T02:24:06;12.30;99.90
55213;DHT22;41083;52.932;6.674;2023-05-14T02:26:32;12.30;99.90
55213;DHT22;41083;52.932;6.674;2023-05-14T02:28:58;12.20;99.90
55213;DHT22;41083;52.932;6.674;2023-05-14T02:31:23;12.20;99.90
55213;DHT22;41083;52.932;6.674;2023-05-14T02:33:49;12.20;99.90
55213;DHT22;41083;52.932;6.674;2023-05-14T02:36:14;12.20;99.90
55213;DHT22;41083;52.932;6.674;2023-05-14T02:38:40;12.20;99.90
55213;DHT22;41083;52.932;6.674;2023-05-14T02:41:05;12.20;99.90
55213;DHT22;41083;52.932;6.674;2023-05-14T02:43:31;12.20;99.90
55213;DHT22;41083;52.932;6.674;2023-05-14T02:45:57;12.20;99.90
55213;DHT22;41083;52.932;6.674;2023-05-14T02:48:22;12.10;99.90
55213;DHT22;41083;52.932;6.674;2023-05-14T02:50:51;12.10;99.90
55213;DHT22;41083;52.932;6.674;2023-05-14T02:53:17;12.10;99.90
55213;DHT22;41083;52.932;6.674;2023-05-14T02:55:42;12.00;99.90
55213;DHT22;41083;52.932;6.674;2023-05-14T02:58:08;11.90;99.90
55213;DHT22;41083;52.932;6.674;2023-05-14T03:00:34;11.80;99.90
55213;DHT22;41083;52.932;6.674;2023-05-14T03:03:00;11.70;99.90
55213;DHT22;41083;52.932;6.674;2023-05-14T03:05:26;11.80;99.90
55213;DHT22;41083;52.932;6.674;2023-05-14T03:07:51;11.70;99.90
55213;DHT22;41083;52.932;6.674;2023-05-14T03:10:18;11.70;99.90
55213;DHT22;41083;52.932;6.674;2023-05-14T03:12:44;11.80;99.90
55213;DHT22;41083;52.932;6.674;2023-05-14T03:15:10;11.70;99.90
55213;DHT22;41083;52.932;6.674;2023-05-14T03:17:35;11.70;99.90
55213;DHT22;41083;52.932;6.674;2023-05-14T03:20:01;11.70;99.90
55213;DHT22;41083;52.932;6.674;2023-05-14T03:22:27;11.70;99.90
55213;DHT22;41083;52.932;6.674;2023-05-14T03:24:53;11.70;99.90
55213;DHT22;41083;52.932;6.674;2023-05-14T03:27:18;11.70;99.90
55213;DHT22;41083;52.932;6.674;2023-05-14T03:29:45;11.70;99.90
55213;DHT22;41083;52.932;6.674;2023-05-14T03:32:10;11.70;99.90
55213;DHT22;41083;52.932;6.674;2023-05-14T03:34:36;11.70;99.90
55213;DHT22;41083;52.932;6.674;2023-05-14T03:37:01;11.70;99.90
55213;DHT22;41083;52.932;6.674;2023-05-14T03:39:27;11.70;99.90
55213;DHT22;41083;52.932;6.674;2023-05-14T03:41:53;11.70;99.90
55213;DHT22;41083;52.932;6.674;2023-05-14T03:44:18;11.70;99.90
55213;DHT22;41083;52.932;6.674;2023-05-14T03:46:44;11.70;99.90
55213;DHT22;41083;52.932;6.674;2023-05-14T03:49:09;11.70;99.90
55213;DHT22;41083;52.932;6.674;2023-05-14T03:51:35;11.70;99.90
55213;DHT22;41083;52.932;6.674;2023-05-14T03:54:02;11.70;99.90
55213;DHT22;41083;52.932;6.674;2023-05-14T03:56:27;11.70;99.90
55213;DHT22;41083;52.932;6.674;2023-05-14T03:58:53;11.70;99.90
55213;DHT22;41083;52.932;6.674;2023-05-14T04:01:18;11.70;99.90
55213;DHT22;41083;52.932;6.674;2023-05-14T04:03:44;11.70;99.90
55213;DHT22;41083;52.932;6.674;2023-05-14T04:06:10;11.70;99.90
55213;DHT22;41083;52.932;6.674;2023-05-14T04:08:35;11.70;99.90
55213;DHT22;41083;52.932;6.674;2023-05-14T04:11:01;11.70;99.90
55213;DHT22;41083;52.932;6.674;2023-05-14T04:13:26;11.60;99.90
55213;DHT22;41083;52.932;6.674;2023-05-14T04:15:52;11.70;99.90
55213;DHT22;41083;52.932;6.674;2023-05-14T04:18:17;11.70;99.90
55213;DHT22;41083;52.932;6.674;2023-05-14T04:20:43;11.70;99.90
55213;DHT22;41083;52.932;6.674;2023-05-14T04:23:08;11.70;99.90
55213;DHT22;41083;52.932;6.674;2023-05-14T04:25:34;11.70;99.90
55213;DHT22;41083;52.932;6.674;2023-05-14T04:28:00;11.70;99.90
55213;DHT22;41083;52.932;6.674;2023-05-14T04:30:25;11.70;99.90
55213;DHT22;41083;52.932;6.674;2023-05-14T04:32:51;11.70;99.90
55213;DHT22;41083;52.932;6.674;2023-05-14T04:35:17;11.70;99.90
55213;DHT22;41083;52.932;6.674;2023-05-14T04:37:42;11.80;99.90
55213;DHT22;41083;52.932;6.674;2023-05-14T04:40:08;11.70;99.90
55213;DHT22;41083;52.932;6.674;2023-05-14T04:42:37;11.70;99.90
55213;DHT22;41083;52.932;6.674;2023-05-14T04:45:04;11.80;99.90
55213;DHT22;41083;52.932;6.674;2023-05-14T04:47:31;11.70;99.90
55213;DHT22;41083;52.932;6.674;2023-05-14T04:49:56;11.80;99.90
55213;DHT22;41083;52.932;6.674;2023-05-14T04:52:22;11.70;99.90
55213;DHT22;41083;52.932;6.674;2023-05-14T04:54:48;11.70;99.90
55213;DHT22;41083;52.932;6.674;2023-05-14T04:57:14;11.70;99.90
55213;DHT22;41083;52.932;6.674;2023-05-14T04:59:40;11.60;99.90
55213;DHT22;41083;52.932;6.674;2023-05-14T05:02:05;11.60;99.90
55213;DHT22;41083;52.932;6.674;2023-05-14T05:04:31;11.60;99.90
55213;DHT22;41083;52.932;6.674;2023-05-14T05:06:57;11.70;99.90
55213;DHT22;41083;52.932;6.674;2023-05-14T05:09:22;11.70;99.90
55213;DHT22;41083;52.932;6.674;2023-05-14T05:11:48;11.70;99.90
55213;DHT22;41083;52.932;6.674;2023-05-14T05:14:14;11.70;99.90
55213;DHT22;41083;52.932;6.674;2023-05-14T05:16:39;11.70;99.90
55213;DHT22;41083;52.932;6.674;2023-05-14T05:19:05;11.70;99.90
55213;DHT22;41083;52.932;6.674;2023-05-14T05:21:30;11.70;99.90
55213;DHT22;41083;52.932;6.674;2023-05-14T05:23:56;11.70;99.90
55213;DHT22;41083;52.932;6.674;2023-05-14T05:26:21;11.80;99.90
55213;DHT22;41083;52.932;6.674;2023-05-14T05:28:47;11.80;99.90
55213;DHT22;41083;52.932;6.674;2023-05-14T05:31:13;11.80;99.90
55213;DHT22;41083;52.932;6.674;2023-05-14T05:33:38;11.90;99.90
55213;DHT22;41083;52.932;6.674;2023-05-14T05:36:04;11.90;99.90
55213;DHT22;41083;52.932;6.674;2023-05-14T05:38:30;11.90;99.90
55213;DHT22;41083;52.932;6.674;2023-05-14T05:40:55;12.00;99.90
55213;DHT22;41083;52.932;6.674;2023-05-14T05:43:21;12.00;99.90
55213;DHT22;41083;52.932;6.674;2023-05-14T05:45:46;12.00;99.90
55213;DHT22;41083;52.932;6.674;2023-05-14T05:48:12;12.00;99.90
55213;DHT22;41083;52.932;6.674;2023-05-14T05:50:37;12.00;99.90
55213;DHT22;41083;52.932;6.674;2023-05-14T05:53:03;12.10;99.90
55213;DHT22;41083;52.932;6.674;2023-05-14T05:55:29;12.10;99.90
55213;DHT22;41083;52.932;6.674;2023-05-14T05:57:54;12.20;99.90
55213;DHT22;41083;52.932;6.674;2023-05-14T06:00:20;12.20;99.90
55213;DHT22;41083;52.932;6.674;2023-05-14T06:02:46;12.30;99.90
55213;DHT22;41083;52.932;6.674;2023-05-14T06:05:12;12.30;99.90
55213;DHT22;41083;52.932;6.674;2023-05-14T06:07:37;12.40;99.90
55213;DHT22;41083;52.932;6.674;2023-05-14T06:10:03;12.50;99.90
55213;DHT22;41083;52.932;6.674;2023-05-14T06:12:29;12.50;99.90
55213;DHT22;41083;52.932;6.674;2023-05-14T06:14:55;12.50;99.90
55213;DHT22;41083;52.932;6.674;2023-05-14T06:17:22;12.60;99.90
55213;DHT22;41083;52.932;6.674;2023-05-14T06:19:49;12.60;99.90
55213;DHT22;41083;52.932;6.674;2023-05-14T06:22:15;12.60;99.90
55213;DHT22;41083;52.932;6.674;2023-05-14T06:24:40;12.70;99.90
55213;DHT22;41083;52.932;6.674;2023-05-14T06:27:06;12.90;99.90
55213;DHT22;41083;52.932;6.674;2023-05-14T06:29:32;13.30;99.90
55213;DHT22;41083;52.932;6.674;2023-05-14T06:32:01;13.90;99.90
55213;DHT22;41083;52.932;6.674;2023-05-14T06:34:28;14.50;99.90
55213;DHT22;41083;52.932;6.674;2023-05-14T06:36:53;15.10;99.90
55213;DHT22;41083;52.932;6.674;2023-05-14T06:39:19;15.70;99.90
55213;DHT22;41083;52.932;6.674;2023-05-14T06:41:44;16.20;99.90
55213;DHT22;41083;52.932;6.674;2023-05-14T06:44:10;16.20;99.90
55213;DHT22;41083;52.932;6.674;2023-05-14T06:46:36;16.00;99.90
55213;DHT22;41083;52.932;6.674;2023-05-14T06:49:01;15.80;99.90
55213;DHT22;41083;52.932;6.674;2023-05-14T06:51:27;15.50;99.90
55213;DHT22;41083;52.932;6.674;2023-05-14T06:53:54;15.30;99.90
55213;DHT22;41083;52.932;6.674;2023-05-14T06:56:20;15.10;99.90
55213;DHT22;41083;52.932;6.674;2023-05-14T06:58:46;14.90;99.90
55213;DHT22;41083;52.932;6.674;2023-05-14T07:01:12;14.80;99.90
55213;DHT22;41083;52.932;6.674;2023-05-14T07:03:38;14.70;99.90
55213;DHT22;41083;52.932;6.674;2023-05-14T07:06:03;14.70;99.90
55213;DHT22;41083;52.932;6.674;2023-05-14T07:08:29;14.60;99.90
55213;DHT22;41083;52.932;6.674;2023-05-14T07:10:55;14.60;99.90
55213;DHT22;41083;52.932;6.674;2023-05-14T07:13:22;14.50;99.90
55213;DHT22;41083;52.932;6.674;2023-05-14T07:15:47;14.50;99.90
55213;DHT22;41083;52.932;6.674;2023-05-14T07:18:13;14.50;99.90
55213;DHT22;41083;52.932;6.674;2023-05-14T07:20:38;14.50;99.90
55213;DHT22;41083;52.932;6.674;2023-05-14T07:23:04;14.50;99.90
55213;DHT22;41083;52.932;6.674;2023-05-14T07:25:29;14.50;99.90
55213;DHT22;41083;52.932;6.674;2023-05-14T07:27:55;14.50;99.90
55213;DHT22;41083;52.932;6.674;2023-05-14T07:30:20;14.50;99.90
55213;DHT22;41083;52.932;6.674;2023-05-14T07:32:46;14.50;99.90
55213;DHT22;41083;52.932;6.674;2023-05-14T07:35:12;14.60;99.90
55213;DHT22;41083;52.932;6.674;2023-05-14T07:37:37;14.60;99.90
55213;DHT22;41083;52.932;6.674;2023-05-14T07:40:03;14.60;99.90
55213;DHT22;41083;52.932;6.674;2023-05-14T07:42:29;14.70;99.90
55213;DHT22;41083;52.932;6.674;2023-05-14T07:44:54;14.70;99.90
55213;DHT22;41083;52.932;6.674;2023-05-14T07:47:20;14.70;99.90
55213;DHT22;41083;52.932;6.674;2023-05-14T07:49:46;14.70;99.90
55213;DHT22;41083;52.932;6.674;2023-05-14T07:52:11;14.80;99.90
55213;DHT22;41083;52.932;6.674;2023-05-14T07:54:37;14.80;99.90
55213;DHT22;41083;52.932;6.674;2023-05-14T07:57:03;14.90;99.90
55213;DHT22;41083;52.932;6.674;2023-05-14T07:59:28;14.90;99.90
55213;DHT22;41083;52.932;6.674;2023-05-14T08:01:54;15.00;99.90
55213;DHT22;41083;52.932;6.674;2023-05-14T08:04:19;15.00;99.90
55213;DHT22;41083;52.932;6.674;2023-05-14T08:06:48;15.00;99.90
55213;DHT22;41083;52.932;6.674;2023-05-14T08:09:13;15.00;99.90
55213;DHT22;41083;52.932;6.674;2023-05-14T08:11:39;15.10;99.90
55213;DHT22;41083;52.932;6.674;2023-05-14T08:14:05;15.20;99.90
55213;DHT22;41083;52.932;6.674;2023-05-14T08:16:30;15.20;99.90
55213;DHT22;41083;52.932;6.674;2023-05-14T08:18:56;15.30;99.90
55213;DHT22;41083;52.932;6.674;2023-05-14T08:21:22;15.30;99.90
55213;DHT22;41083;52.932;6.674;2023-05-14T08:23:47;15.30;99.90
55213;DHT22;41083;52.932;6.674;2023-05-14T08:26:13;15.40;99.90
55213;DHT22;41083;52.932;6.674;2023-05-14T08:28:38;15.50;99.90
55213;DHT22;41083;52.932;6.674;2023-05-14T08:31:04;15.50;99.90
55213;DHT22;41083;52.932;6.674;2023-05-14T08:33:30;15.50;99.90
55213;DHT22;41083;52.932;6.674;2023-05-14T08:35:55;15.60;99.90
55213;DHT22;41083;52.932;6.674;2023-05-14T08:38:22;15.60;99.90
55213;DHT22;41083;52.932;6.674;2023-05-14T08:40:55;15.60;99.90
55213;DHT22;41083;52.932;6.674;2023-05-14T08:43:29;15.60;99.90
55213;DHT22;41083;52.932;6.674;2023-05-14T08:46:00;15.70;99.90
55213;DHT22;41083;52.932;6.674;2023-05-14T08:48:31;15.70;99.90
55213;DHT22;41083;52.932;6.674;2023-05-14T08:50:58;15.70;99.90
55213;DHT22;41083;52.932;6.674;2023-05-14T08:53:24;15.70;99.90
55213;DHT22;41083;52.932;6.674;2023-05-14T08:55:50;15.70;99.90
55213;DHT22;41083;52.932;6.674;2023-05-14T08:58:15;15.80;99.90
55213;DHT22;41083;52.932;6.674;2023-05-14T09:00:41;15.80;99.90
55213;DHT22;41083;52.932;6.674;2023-05-14T09:03:07;15.90;99.90
55213;DHT22;41083;52.932;6.674;2023-05-14T09:05:34;15.90;99.90
55213;DHT22;41083;52.932;6.674;2023-05-14T09:08:00;15.90;99.90
55213;DHT22;41083;52.932;6.674;2023-05-14T09:10:25;16.00;99.90
55213;DHT22;41083;52.932;6.674;2023-05-14T09:12:51;16.00;99.90
55213;DHT22;41083;52.932;6.674;2023-05-14T09:15:17;16.00;99.90
55213;DHT22;41083;52.932;6.674;2023-05-14T09:17:43;16.10;99.90
55213;DHT22;41083;52.932;6.674;2023-05-14T09:20:11;16.10;99.90
55213;DHT22;41083;52.932;6.674;2023-05-14T09:22:37;16.10;99.90
55213;DHT22;41083;52.932;6.674;2023-05-14T09:25:07;16.10;99.90
55213;DHT22;41083;52.932;6.674;2023-05-14T09:27:34;16.20;99.90
55213;DHT22;41083;52.932;6.674;2023-05-14T09:30:18;16.10;99.90
55213;DHT22;41083;52.932;6.674;2023-05-14T09:32:44;16.20;99.90
55213;DHT22;41083;52.932;6.674;2023-05-14T09:35:23;16.20;99.90
55213;DHT22;41083;52.932;6.674;2023-05-14T09:37:50;16.30;99.90
55213;DHT22;41083;52.932;6.674;2023-05-14T09:40:17;16.30;99.90
55213;DHT22;41083;52.932;6.674;2023-05-14T09:42:44;16.40;99.90
55213;DHT22;41083;52.932;6.674;2023-05-14T09:45:09;16.40;99.90
55213;DHT22;41083;52.932;6.674;2023-05-14T09:47:36;16.40;99.90
55213;DHT22;41083;52.932;6.674;2023-05-14T09:50:03;16.40;99.90
55213;DHT22;41083;52.932;6.674;2023-05-14T09:52:28;16.40;99.90
55213;DHT22;41083;52.932;6.674;2023-05-14T09:54:54;16.40;99.90
55213;DHT22;41083;52.932;6.674;2023-05-14T09:57:20;16.40;99.90
55213;DHT22;41083;52.932;6.674;2023-05-14T09:59:46;16.50;99.90
55213;DHT22;41083;52.932;6.674;2023-05-14T10:02:20;16.60;99.90
55213;DHT22;41083;52.932;6.674;2023-05-14T10:04:48;16.60;99.90
55213;DHT22;41083;52.932;6.674;2023-05-14T10:07:17;16.50;99.90
55213;DHT22;41083;52.932;6.674;2023-05-14T10:09:46;16.60;99.90
55213;DHT22;41083;52.932;6.674;2023-05-14T10:12:12;16.70;99.90
55213;DHT22;41083;52.932;6.674;2023-05-14T10:14:41;16.60;99.90
55213;DHT22;41083;52.932;6.674;2023-05-14T10:17:08;16.70;99.90
55213;DHT22;41083;52.932;6.674;2023-05-14T10:19:52;16.80;99.90
55213;DHT22;41083;52.932;6.674;2023-05-14T10:22:22;16.80;99.90
55213;DHT22;41083;52.932;6.674;2023-05-14T10:24:49;16.80;99.90
55213;DHT22;41083;52.932;6.674;2023-05-14T10:27:19;16.80;99.90
55213;DHT22;41083;52.932;6.674;2023-05-14T10:29:53;16.90;99.90
55213;DHT22;41083;52.932;6.674;2023-05-14T10:32:24;16.90;99.90
55213;DHT22;41083;52.932;6.674;2023-05-14T10:34:53;17.00;99.90
55213;DHT22;41083;52.932;6.674;2023-05-14T10:37:25;17.00;99.90
55213;DHT22;41083;52.932;6.674;2023-05-14T10:42:34;17.20;99.90
55213;DHT22;41083;52.932;6.674;2023-05-14T10:45:06;17.20;99.90
55213;DHT22;41083;52.932;6.674;2023-05-14T10:47:37;17.30;99.90
55213;DHT22;41083;52.932;6.674;2023-05-14T10:50:05;17.40;99.90
55213;DHT22;41083;52.932;6.674;2023-05-14T10:52:31;17.50;99.90
55213;DHT22;41083;52.932;6.674;2023-05-14T10:55:04;17.50;99.90
55213;DHT22;41083;52.932;6.674;2023-05-14T10:57:34;17.50;99.90
55213;DHT22;41083;52.932;6.674;2023-05-14T11:00:00;17.50;99.90
55213;DHT22;41083;52.932;6.674;2023-05-14T11:02:31;17.60;99.90
55213;DHT22;41083;52.932;6.674;2023-05-14T11:05:00;17.60;99.90
55213;DHT22;41083;52.932;6.674;2023-05-14T11:10:15;17.60;99.90
55213;DHT22;41083;52.932;6.674;2023-05-14T11:12:43;17.60;99.90
55213;DHT22;41083;52.932;6.674;2023-05-14T11:15:15;17.70;99.90
55213;DHT22;41083;52.932;6.674;2023-05-14T11:17:42;17.70;99.90
55213;DHT22;41083;52.932;6.674;2023-05-14T11:20:09;17.60;99.90
55213;DHT22;41083;52.932;6.674;2023-05-14T11:22:35;17.70;99.90
55213;DHT22;41083;52.932;6.674;2023-05-14T11:25:01;17.70;99.90
55213;DHT22;41083;52.932;6.674;2023-05-14T11:27:28;17.80;99.60
55213;DHT22;41083;52.932;6.674;2023-05-14T11:29:53;17.90;99.60
55213;DHT22;41083;52.932;6.674;2023-05-14T11:32:20;17.90;99.10
55213;DHT22;41083;52.932;6.674;2023-05-14T11:34:46;17.90;98.70
55213;DHT22;41083;52.932;6.674;2023-05-14T11:37:14;17.90;98.60
55213;DHT22;41083;52.932;6.674;2023-05-14T11:39:46;18.00;98.50
55213;DHT22;41083;52.932;6.674;2023-05-14T11:42:12;18.00;97.80
55213;DHT22;41083;52.932;6.674;2023-05-14T11:44:39;18.00;98.10
55213;DHT22;41083;52.932;6.674;2023-05-14T11:47:05;18.00;98.00
55213;DHT22;41083;52.932;6.674;2023-05-14T11:49:31;18.10;97.70
55213;DHT22;41083;52.932;6.674;2023-05-14T11:51:58;18.10;97.60
55213;DHT22;41083;52.932;6.674;2023-05-14T11:54:26;18.10;97.10
55213;DHT22;41083;52.932;6.674;2023-05-14T11:56:51;18.20;96.60
55213;DHT22;41083;52.932;6.674;2023-05-14T11:59:18;18.20;96.30
55213;DHT22;41083;52.932;6.674;2023-05-14T12:01:44;18.30;96.00
55213;DHT22;41083;52.932;6.674;2023-05-14T12:04:14;18.40;95.50
55213;DHT22;41083;52.932;6.674;2023-05-14T12:06:43;18.40;95.20
55213;DHT22;41083;52.932;6.674;2023-05-14T12:09:11;18.50;94.90
55213;DHT22;41083;52.932;6.674;2023-05-14T12:11:36;18.50;94.40
55213;DHT22;41083;52.932;6.674;2023-05-14T12:14:10;18.60;94.60
55213;DHT22;41083;52.932;6.674;2023-05-14T12:16:39;18.70;92.60
55213;DHT22;41083;52.932;6.674;2023-05-14T12:19:04;18.70;93.30
55213;DHT22;41083;52.932;6.674;2023-05-14T12:21:30;18.70;92.90
55213;DHT22;41083;52.932;6.674;2023-05-14T12:23:59;18.70;92.10
55213;DHT22;41083;52.932;6.674;2023-05-14T12:26:25;18.80;91.10
55213;DHT22;41083;52.932;6.674;2023-05-14T12:29:01;18.80;91.40
55213;DHT22;41083;52.932;6.674;2023-05-14T12:31:31;18.90;89.70
55213;DHT22;41083;52.932;6.674;2023-05-14T12:33:57;18.90;90.00
55213;DHT22;41083;52.932;6.674;2023-05-14T12:36:23;18.90;91.00
55213;DHT22;41083;52.932;6.674;2023-05-14T12:38:49;19.00;89.90
55213;DHT22;41083;52.932;6.674;2023-05-14T12:41:15;19.00;89.50
55213;DHT22;41083;52.932;6.674;2023-05-14T12:43:42;19.10;89.10
55213;DHT22;41083;52.932;6.674;2023-05-14T12:46:08;19.10;87.40
55213;DHT22;41083;52.932;6.674;2023-05-14T12:48:35;19.10;87.60
55213;DHT22;41083;52.932;6.674;2023-05-14T12:51:00;19.10;87.70
55213;DHT22;41083;52.932;6.674;2023-05-14T12:53:26;19.10;87.30
55213;DHT22;41083;52.932;6.674;2023-05-14T12:55:51;19.10;85.80
55213;DHT22;41083;52.932;6.674;2023-05-14T12:58:17;19.10;84.90
55213;DHT22;41083;52.932;6.674;2023-05-14T13:00:42;19.10;81.20
55213;DHT22;41083;52.932;6.674;2023-05-14T13:03:08;19.10;81.40
55213;DHT22;41083;52.932;6.674;2023-05-14T13:05:34;19.10;80.20
55213;DHT22;41083;52.932;6.674;2023-05-14T13:08:00;19.10;80.30
55213;DHT22;41083;52.932;6.674;2023-05-14T13:10:28;19.10;79.50
55213;DHT22;41083;52.932;6.674;2023-05-14T13:12:54;19.10;76.80
55213;DHT22;41083;52.932;6.674;2023-05-14T13:15:21;19.20;76.60
55213;DHT22;41083;52.932;6.674;2023-05-14T13:17:47;19.10;76.70
55213;DHT22;41083;52.932;6.674;2023-05-14T13:20:13;19.10;74.50
55213;DHT22;41083;52.932;6.674;2023-05-14T13:22:38;19.20;74.00
55213;DHT22;41083;52.932;6.674;2023-05-14T13:25:04;19.20;72.40
55213;DHT22;41083;52.932;6.674;2023-05-14T13:27:30;19.20;71.20
55213;DHT22;41083;52.932;6.674;2023-05-14T13:29:57;19.30;70.00
55213;DHT22;41083;52.932;6.674;2023-05-14T13:32:23;19.20;69.80
55213;DHT22;41083;52.932;6.674;2023-05-14T13:34:48;19.20;69.80
55213;DHT22;41083;52.932;6.674;2023-05-14T13:37:14;19.20;69.70
55213;DHT22;41083;52.932;6.674;2023-05-14T13:39:40;19.30;69.60
55213;DHT22;41083;52.932;6.674;2023-05-14T13:42:06;19.30;69.70
55213;DHT22;41083;52.932;6.674;2023-05-14T13:44:31;19.30;69.60
55213;DHT22;41083;52.932;6.674;2023-05-14T13:46:57;19.40;70.90
55213;DHT22;41083;52.932;6.674;2023-05-14T13:49:22;19.30;70.70
55213;DHT22;41083;52.932;6.674;2023-05-14T13:51:48;19.30;70.40
55213;DHT22;41083;52.932;6.674;2023-05-14T13:54:14;19.40;70.70
55213;DHT22;41083;52.932;6.674;2023-05-14T13:56:39;19.30;70.40
55213;DHT22;41083;52.932;6.674;2023-05-14T13:59:05;19.30;70.10
55213;DHT22;41083;52.932;6.674;2023-05-14T14:01:31;19.30;68.80
55213;DHT22;41083;52.932;6.674;2023-05-14T14:03:56;19.40;67.50
55213;DHT22;41083;52.932;6.674;2023-05-14T14:06:22;19.40;67.00
55213;DHT22;41083;52.932;6.674;2023-05-14T14:08:48;19.40;66.40
55213;DHT22;41083;52.932;6.674;2023-05-14T14:11:13;19.40;66.20
55213;DHT22;41083;52.932;6.674;2023-05-14T14:13:39;19.40;65.90
55213;DHT22;41083;52.932;6.674;2023-05-14T14:16:05;19.40;65.80
55213;DHT22;41083;52.932;6.674;2023-05-14T14:18:31;19.40;65.20
55213;DHT22;41083;52.932;6.674;2023-05-14T14:20:57;19.50;65.30
55213;DHT22;41083;52.932;6.674;2023-05-14T14:23:22;19.50;65.10
55213;DHT22;41083;52.932;6.674;2023-05-14T14:25:48;19.50;65.60
55213;DHT22;41083;52.932;6.674;2023-05-14T14:28:14;19.50;66.20
55213;DHT22;41083;52.932;6.674;2023-05-14T14:30:39;19.50;65.80
55213;DHT22;41083;52.932;6.674;2023-05-14T14:33:05;19.50;64.10
55213;DHT22;41083;52.932;6.674;2023-05-14T14:35:31;19.40;63.50
55213;DHT22;41083;52.932;6.674;2023-05-14T14:37:57;19.60;62.80
55213;DHT22;41083;52.932;6.674;2023-05-14T14:40:23;19.60;61.70
55213;DHT22;41083;52.932;6.674;2023-05-14T14:42:50;19.60;62.00
55213;DHT22;41083;52.932;6.674;2023-05-14T14:45:16;19.60;62.60
55213;DHT22;41083;52.932;6.674;2023-05-14T14:47:43;19.60;62.00
55213;DHT22;41083;52.932;6.674;2023-05-14T14:50:12;19.70;62.00
55213;DHT22;41083;52.932;6.674;2023-05-14T14:52:39;19.70;62.10
55213;DHT22;41083;52.932;6.674;2023-05-14T14:55:05;19.70;61.10
55213;DHT22;41083;52.932;6.674;2023-05-14T14:57:30;19.70;61.10
55213;DHT22;41083;52.932;6.674;2023-05-14T14:59:56;19.70;61.50
55213;DHT22;41083;52.932;6.674;2023-05-14T15:02:22;19.70;61.30
55213;DHT22;41083;52.932;6.674;2023-05-14T15:04:47;19.70;61.00
55213;DHT22;41083;52.932;6.674;2023-05-14T15:07:13;19.70;60.40
55213;DHT22;41083;52.932;6.674;2023-05-14T15:09:41;19.70;60.20
55213;DHT22;41083;52.932;6.674;2023-05-14T15:12:07;19.70;59.70
55213;DHT22;41083;52.932;6.674;2023-05-14T15:14:34;19.70;59.20
55213;DHT22;41083;52.932;6.674;2023-05-14T15:17:00;19.70;59.20
55213;DHT22;41083;52.932;6.674;2023-05-14T15:19:25;19.70;58.60
55213;DHT22;41083;52.932;6.674;2023-05-14T15:21:51;19.70;58.70
55213;DHT22;41083;52.932;6.674;2023-05-14T15:24:17;19.70;58.90
55213;DHT22;41083;52.932;6.674;2023-05-14T15:26:42;19.70;58.70
55213;DHT22;41083;52.932;6.674;2023-05-14T15:29:08;19.70;58.50
55213;DHT22;41083;52.932;6.674;2023-05-14T15:31:33;19.70;58.30
55213;DHT22;41083;52.932;6.674;2023-05-14T15:33:59;19.70;58.00
55213;DHT22;41083;52.932;6.674;2023-05-14T15:36:25;19.70;57.90